Aviation Digital Data Service (ADDS)

Output produced by METARs form (2028 UTC 24 October 2014)
found at http://www.aviationweather.gov/adds/metars/
 
KPIA 241733Z 2418/2518 23008KT 5SM BR SCT015 BKN250 
     FM241900 21008KT P6SM SCT015 BKN250 
     FM250200 21005KT 3SM BR BKN025 
     FM250800 25003KT 1SM BR SCT025 
     FM251400 31008KT P6SM SCT015